China Lake Naws (Armitage Field) Airport
KNID : now visible

Airfield :











YOU CAN JOIN US ON...

 
LOGIN :

Register | Disclaimer

   EN    FR    IT 

 









Legend :    VFR   Marginal VFR   IFR   Intensive IFR   Very Intensive IFR
Visi :
Ceiling :
>= 8 km
>= 3000ft
5 to 8 km
1000 to 3000 ft
1500m to 5 km
500 to 1000 ft
800 to 1500m
200 to 500 ft
< 800m
< 200 ft
Symbols :   Thunderstorms  Fog  Heavy snow  Heavy precipitations  Wind > 20 kt






- Airport Elevation : 2283 ft


KNID - China Lake Naws (Armitage Field)

CURRENT METAR :
  • 281256Z 18007KT 10SM CLR 22/01 A2977 RMK AO2 SLP061 FU/HZ ALQDS T02220011 $

EXPIRED METARs :
  • 281156Z 28014G22KT 10SM CLR 24/02 A2976 RMK AO2 PK WND 29028/1109 SLP057 FU HZ ALQDS T02390017 10261 20206 56012 $
  • 281056Z AUTO 29023G30KT 10SM FU HZ CLR 24/04 A2977 RMK AO2 PK WND 29030/1055 WSHFT 1001 SLP060 T02390039 $

TAF AMD TAF KNID
Valid from the 28 at 05:00 until the 28 at 23:00 UTC


2805/2823 22007KT 4800 FU HZ OVC040 QNH2978INS FU OVC040
BECMG 2808/2810 25006KT 8000 FU HZ BKN050 QNH2977INS FU BKN050
BECMG 2812/2814 VRB05KT 3200 FU HZ FEW000 SCT030 QNH2982INS FU FEW000 SCT030
BECMG 2818/2820 15007KT 8000 FU HZ FEW040 QNH2977INS FU FEW040
BECMG 2821/2823 20010G18KT 9999 NSW SKC QNH2975INS T15/2813Z T30/2823Z LAST NO AMD AFT 2805 NEXT 2815 AMD 0502
KZLA FIR / North America



MET'MAP, your aeronautical weather chart ! - Copyright ORBIFLY December 2007 - Disclaimer

ORBIFLY MET'MAP TEAM :

Programming & Development : Alexandra Zaïnal
Concept & original design : Baudouin d'Aumeries
Assistance for programming : Marc-Olivier Méhu
Technical & hardware support : Manuel Goepfert

Contact : metmap@orbifly.com




SOURCES & CREDITS :

   NOAA       Earth
Advisory